createdAt,value
2017-12-31T00:02:23.919Z,0.50
2017-12-31T00:04:51.385Z,0.60
2017-12-31T00:07:18.841Z,0.70
2017-12-31T00:09:46.393Z,0.55
2017-12-31T00:12:13.857Z,0.50
2017-12-31T00:14:41.409Z,1.02
2017-12-31T00:17:08.898Z,1.02
2017-12-31T00:19:36.364Z,0.65
2017-12-31T00:22:03.896Z,0.60
2017-12-31T00:24:31.370Z,0.50
2017-12-31T00:26:58.838Z,2.97
2017-12-31T00:29:26.329Z,1.37
2017-12-31T00:31:53.801Z,0.70
2017-12-31T00:34:21.385Z,6.18
2017-12-31T00:36:48.921Z,3.33
2017-12-31T00:39:16.415Z,8.07
2017-12-31T00:41:43.890Z,2.60
2017-12-31T00:44:11.390Z,3.90
2017-12-31T00:46:38.857Z,1.00
2017-12-31T00:49:06.435Z,0.70
2017-12-31T00:51:33.902Z,4.12
2017-12-31T00:54:02.410Z,1.48
2017-12-31T00:56:29.881Z,1.42
2017-12-31T00:58:57.390Z,3.03
2017-12-31T01:01:24.955Z,3.05
2017-12-31T01:03:52.646Z,3.87
2017-12-31T01:06:20.123Z,1.40
2017-12-31T01:08:47.597Z,1.50
2017-12-31T01:11:15.069Z,2.25
2017-12-31T01:13:42.546Z,4.60
2017-12-31T01:16:10.033Z,2.30
2017-12-31T01:18:37.501Z,2.12
2017-12-31T01:21:05.016Z,4.43
2017-12-31T01:23:32.576Z,1.48
2017-12-31T01:26:00.048Z,4.45
2017-12-31T01:28:27.557Z,2.22
2017-12-31T01:30:55.052Z,2.78
2017-12-31T01:33:22.522Z,1.80
2017-12-31T01:35:49.997Z,1.58
2017-12-31T01:38:17.227Z,1.73
2017-12-31T01:40:44.729Z,1.08
2017-12-31T01:43:12.210Z,1.48
2017-12-31T01:45:39.699Z,6.75
2017-12-31T01:48:07.182Z,1.48
2017-12-31T01:50:34.677Z,2.50
2017-12-31T01:53:02.175Z,1.85
2017-12-31T01:55:29.662Z,1.73
2017-12-31T01:57:57.137Z,1.10
2017-12-31T02:00:24.612Z,2.35
2017-12-31T02:02:52.086Z,4.28
2017-12-31T02:05:19.582Z,3.83
2017-12-31T02:07:47.329Z,4.18
2017-12-31T02:10:14.830Z,1.70
2017-12-31T02:12:42.315Z,3.20
2017-12-31T02:15:09.786Z,3.58
2017-12-31T02:17:38.319Z,1.98
2017-12-31T02:20:05.790Z,1.75
2017-12-31T02:22:33.302Z,3.85
2017-12-31T02:25:00.966Z,5.75
2017-12-31T02:27:28.470Z,8.02
2017-12-31T02:29:55.988Z,3.83
2017-12-31T02:32:23.472Z,1.25
2017-12-31T02:34:56.158Z,4.03
2017-12-31T02:37:23.633Z,2.28
2017-12-31T02:39:51.159Z,2.78
2017-12-31T02:42:18.632Z,1.25
2017-12-31T02:44:46.326Z,5.45
2017-12-31T02:47:13.797Z,4.22
2017-12-31T02:49:41.310Z,4.62
2017-12-31T02:52:08.783Z,2.20
2017-12-31T02:54:38.206Z,5.35
2017-12-31T02:57:05.692Z,1.83
2017-12-31T02:59:33.194Z,2.80
2017-12-31T03:02:00.671Z,3.72
2017-12-31T03:04:28.532Z,2.05
2017-12-31T03:06:56.011Z,6.35
2017-12-31T03:09:23.517Z,5.28
2017-12-31T03:11:50.992Z,3.50
2017-12-31T03:14:18.241Z,2.33
2017-12-31T03:16:45.742Z,2.55
2017-12-31T03:19:13.215Z,4.12
2017-12-31T03:21:40.690Z,1.15
2017-12-31T03:24:09.218Z,2.80
2017-12-31T03:26:37.721Z,7.03
2017-12-31T03:29:05.204Z,2.45
2017-12-31T03:31:32.693Z,1.45
2017-12-31T03:34:00.169Z,4.60
2017-12-31T03:36:27.666Z,6.28
2017-12-31T03:38:55.161Z,1.65
2017-12-31T03:41:22.644Z,1.77
2017-12-31T03:43:50.128Z,3.25
2017-12-31T03:46:17.632Z,1.45
2017-12-31T03:48:45.206Z,1.20
2017-12-31T03:51:12.701Z,3.97
2017-12-31T03:53:40.217Z,3.97
2017-12-31T03:56:09.646Z,1.55
2017-12-31T03:58:37.258Z,4.65
2017-12-31T04:01:04.921Z,3.80
2017-12-31T04:03:32.445Z,2.25
2017-12-31T04:05:59.941Z,2.10
2017-12-31T04:08:27.433Z,2.62
2017-12-31T04:10:54.737Z,2.10
2017-12-31T04:13:22.241Z,2.37
2017-12-31T04:15:50.731Z,1.92
2017-12-31T04:18:18.246Z,2.83
2017-12-31T04:20:45.755Z,4.05
2017-12-31T04:23:13.225Z,2.33
2017-12-31T04:25:40.697Z,1.15
2017-12-31T04:28:08.172Z,2.35
2017-12-31T04:30:35.841Z,2.90
2017-12-31T04:33:03.337Z,2.65
2017-12-31T04:35:30.829Z,2.45
2017-12-31T04:37:59.277Z,2.85
2017-12-31T04:40:26.771Z,1.73
2017-12-31T04:42:54.624Z,0.80
2017-12-31T04:45:22.153Z,1.95
2017-12-31T04:47:49.636Z,1.90
2017-12-31T04:50:17.133Z,8.73
2017-12-31T04:52:44.625Z,1.48
2017-12-31T04:55:13.105Z,1.50
2017-12-31T04:57:42.549Z,2.25
2017-12-31T05:00:10.138Z,2.75
2017-12-31T05:02:37.629Z,0.80
2017-12-31T05:05:05.113Z,1.00
2017-12-31T05:07:33.623Z,1.90
2017-12-31T05:10:01.875Z,2.40
2017-12-31T05:12:29.364Z,0.70
2017-12-31T05:14:56.847Z,1.00
2017-12-31T05:17:24.341Z,1.62
2017-12-31T05:19:51.818Z,2.90
2017-12-31T05:22:19.282Z,1.00
2017-12-31T05:24:46.769Z,1.30
2017-12-31T05:27:14.243Z,0.73
2017-12-31T05:29:41.708Z,1.05
2017-12-31T05:32:09.197Z,0.60
2017-12-31T05:34:37.633Z,5.90
2017-12-31T05:37:05.102Z,0.60
2017-12-31T05:39:32.584Z,1.23
2017-12-31T05:42:00.075Z,0.60
2017-12-31T05:44:27.573Z,2.00
2017-12-31T05:46:55.072Z,2.25
2017-12-31T05:49:22.577Z,2.87
2017-12-31T05:51:50.045Z,0.93
2017-12-31T05:54:17.513Z,1.17
2017-12-31T05:56:45.001Z,1.30
2017-12-31T05:59:12.492Z,0.73
2017-12-31T06:01:40.056Z,0.62
2017-12-31T06:04:07.613Z,0.77
2017-12-31T06:06:35.166Z,1.35
2017-12-31T06:09:02.454Z,2.58
2017-12-31T06:11:29.947Z,1.52
2017-12-31T06:13:57.537Z,0.60
2017-12-31T06:16:25.025Z,0.95
2017-12-31T06:18:52.497Z,1.40
2017-12-31T06:21:19.984Z,1.08
2017-12-31T06:23:47.575Z,0.60
2017-12-31T06:26:15.086Z,1.42
2017-12-31T06:28:42.577Z,5.50
2017-12-31T06:31:10.062Z,1.85
2017-12-31T06:33:37.631Z,1.12
2017-12-31T06:36:05.125Z,1.80
2017-12-31T06:38:32.601Z,1.95
2017-12-31T06:41:00.070Z,0.80
2017-12-31T06:43:27.536Z,1.23
2017-12-31T06:45:55.638Z,1.98
2017-12-31T06:48:23.110Z,1.12
2017-12-31T06:50:50.601Z,2.45
2017-12-31T06:53:18.109Z,3.47
2017-12-31T06:55:45.602Z,1.67
2017-12-31T06:58:13.323Z,1.10
2017-12-31T07:00:40.840Z,0.75
2017-12-31T07:03:08.359Z,1.73
2017-12-31T07:05:35.852Z,0.60
2017-12-31T07:08:03.345Z,1.95
2017-12-31T07:10:30.813Z,1.60
2017-12-31T07:12:58.306Z,1.58
2017-12-31T07:15:25.781Z,2.30
2017-12-31T07:17:53.247Z,0.50
2017-12-31T07:20:20.749Z,2.65
2017-12-31T07:22:48.217Z,1.15
2017-12-31T07:25:15.688Z,0.50
2017-12-31T07:27:43.166Z,0.60
2017-12-31T07:30:10.655Z,4.32
2017-12-31T07:32:39.661Z,0.73
2017-12-31T07:35:07.150Z,3.70
2017-12-31T07:37:34.664Z,2.58
2017-12-31T07:40:04.188Z,3.70
2017-12-31T07:42:31.669Z,3.08
2017-12-31T07:44:59.164Z,3.40
2017-12-31T07:47:26.643Z,2.55
2017-12-31T07:49:54.133Z,1.10
2017-12-31T07:52:21.622Z,2.67
2017-12-31T07:54:49.115Z,0.98
2017-12-31T07:57:16.589Z,1.75
2017-12-31T07:59:44.566Z,3.72
2017-12-31T08:02:12.064Z,3.10
2017-12-31T08:04:39.557Z,3.12
2017-12-31T08:07:07.033Z,0.82
2017-12-31T08:09:34.600Z,1.10
2017-12-31T08:12:02.469Z,2.17
2017-12-31T08:14:31.922Z,1.80
2017-12-31T08:16:59.417Z,1.77
2017-12-31T08:19:26.889Z,3.30
2017-12-31T08:21:54.373Z,3.35
2017-12-31T08:24:21.861Z,1.12
2017-12-31T08:26:49.361Z,2.60
2017-12-31T08:29:17.210Z,3.15
2017-12-31T08:31:44.688Z,5.78
2017-12-31T08:34:12.244Z,3.08
2017-12-31T08:36:40.465Z,3.70
2017-12-31T08:39:07.938Z,1.58
2017-12-31T08:41:35.434Z,1.25
2017-12-31T08:44:02.927Z,4.30
2017-12-31T08:46:30.429Z,5.22
2017-12-31T08:48:57.918Z,2.08
2017-12-31T08:51:25.374Z,1.33
2017-12-31T08:53:52.855Z,1.80
2017-12-31T08:56:20.342Z,0.80
2017-12-31T08:58:47.809Z,2.62
2017-12-31T09:01:15.485Z,1.75
2017-12-31T09:03:42.967Z,1.33
2017-12-31T09:06:10.454Z,3.33
2017-12-31T09:08:37.945Z,1.25
2017-12-31T09:11:05.438Z,1.25
2017-12-31T09:13:32.909Z,3.42
2017-12-31T09:16:00.506Z,1.40
2017-12-31T09:18:27.996Z,1.00
2017-12-31T09:20:57.426Z,1.10
2017-12-31T09:23:24.904Z,5.85
2017-12-31T09:25:52.405Z,3.00
2017-12-31T09:28:19.996Z,3.05
2017-12-31T09:30:47.465Z,1.90
2017-12-31T09:33:15.012Z,1.00
2017-12-31T09:35:42.555Z,2.22
2017-12-31T09:38:10.055Z,9.45
2017-12-31T09:40:37.614Z,2.25
2017-12-31T09:43:05.086Z,1.30
2017-12-31T09:45:32.560Z,1.75
2017-12-31T09:48:00.031Z,1.30
2017-12-31T09:50:27.545Z,1.08
2017-12-31T09:52:55.205Z,1.00
2017-12-31T09:55:22.676Z,1.98
2017-12-31T09:57:50.153Z,5.18
2017-12-31T10:00:17.632Z,1.40
2017-12-31T10:02:45.125Z,1.92
2017-12-31T10:05:12.599Z,1.10
2017-12-31T10:07:40.072Z,1.20
2017-12-31T10:10:07.573Z,1.48
2017-12-31T10:12:35.061Z,1.20
2017-12-31T10:15:02.580Z,1.35
2017-12-31T10:17:30.473Z,4.03
2017-12-31T10:19:57.981Z,0.60
2017-12-31T10:22:25.453Z,0.70
2017-12-31T10:24:52.947Z,3.05
2017-12-31T10:27:20.203Z,2.55
2017-12-31T10:29:47.821Z,2.75
2017-12-31T10:32:15.316Z,1.80
2017-12-31T10:34:42.823Z,3.20
2017-12-31T10:37:10.319Z,4.05
2017-12-31T10:39:39.513Z,4.75
2017-12-31T10:42:07.185Z,3.97
2017-12-31T10:44:34.678Z,2.92
2017-12-31T10:47:02.367Z,0.82
2017-12-31T10:49:29.869Z,2.67
2017-12-31T10:51:57.547Z,4.03
2017-12-31T10:54:25.081Z,1.10
2017-12-31T10:56:52.898Z,1.70
2017-12-31T10:59:20.386Z,2.12
2017-12-31T11:01:47.874Z,0.73
2017-12-31T11:04:15.370Z,1.80
2017-12-31T11:06:42.862Z,1.05
2017-12-31T11:09:10.384Z,2.67
2017-12-31T11:11:38.069Z,2.17
2017-12-31T11:14:05.553Z,0.60
2017-12-31T11:16:33.121Z,2.25
2017-12-31T11:19:00.629Z,1.33
2017-12-31T11:21:28.117Z,0.73
2017-12-31T11:23:55.618Z,1.95
2017-12-31T11:26:23.109Z,1.83
2017-12-31T11:28:50.598Z,0.70
2017-12-31T11:31:18.090Z,3.10
2017-12-31T11:33:45.639Z,0.60
2017-12-31T11:36:13.129Z,0.70
2017-12-31T11:38:40.626Z,0.82
2017-12-31T11:41:08.121Z,1.75
2017-12-31T11:43:35.674Z,1.80
2017-12-31T11:46:03.277Z,0.80
2017-12-31T11:48:30.843Z,6.80
2017-12-31T11:50:58.516Z,1.42
2017-12-31T11:53:27.115Z,2.08
2017-12-31T11:55:54.624Z,1.15
2017-12-31T11:58:24.648Z,2.87
2017-12-31T12:00:52.137Z,3.83
2017-12-31T12:03:19.674Z,1.15
2017-12-31T12:05:47.145Z,1.30
2017-12-31T12:08:14.638Z,1.25
2017-12-31T12:10:42.139Z,0.93
2017-12-31T12:13:09.625Z,1.00
2017-12-31T12:15:37.123Z,2.25
2017-12-31T12:18:04.617Z,0.80
2017-12-31T12:20:32.110Z,1.95
2017-12-31T12:22:59.601Z,0.88
2017-12-31T12:25:27.125Z,1.35
2017-12-31T12:27:55.255Z,2.85
2017-12-31T12:30:23.560Z,0.73
2017-12-31T12:32:51.053Z,1.48
2017-12-31T12:35:18.669Z,2.60
2017-12-31T12:37:46.153Z,1.12
2017-12-31T12:40:14.573Z,1.67
2017-12-31T12:42:41.795Z,3.03
2017-12-31T12:45:09.387Z,2.08
2017-12-31T12:47:36.601Z,0.70
2017-12-31T12:50:04.098Z,1.60
2017-12-31T12:52:31.314Z,0.90
2017-12-31T12:54:58.403Z,0.90
2017-12-31T12:57:25.597Z,1.00
2017-12-31T12:59:52.908Z,1.07
2017-12-31T13:02:20.121Z,5.17
2017-12-31T13:04:47.372Z,1.50
2017-12-31T13:07:14.570Z,3.17
2017-12-31T13:09:42.727Z,1.20
2017-12-31T13:12:09.914Z,0.83
2017-12-31T13:14:37.262Z,1.13
2017-12-31T13:17:04.449Z,2.23
2017-12-31T13:19:31.641Z,3.73
2017-12-31T13:21:58.837Z,1.03
2017-12-31T13:24:26.094Z,1.53
2017-12-31T13:26:53.423Z,1.43
2017-12-31T13:29:20.622Z,0.60
2017-12-31T13:31:47.927Z,1.57
2017-12-31T13:34:15.119Z,2.73
2017-12-31T13:36:42.318Z,1.47
2017-12-31T13:39:09.519Z,1.50
2017-12-31T13:41:36.845Z,2.10
2017-12-31T13:44:04.179Z,1.33
2017-12-31T13:46:31.369Z,1.27
2017-12-31T13:48:59.339Z,0.97
2017-12-31T13:51:27.534Z,1.63
2017-12-31T13:53:54.951Z,3.47
2017-12-31T13:56:22.149Z,3.20
2017-12-31T13:58:51.321Z,2.40
2017-12-31T14:01:18.626Z,1.53
2017-12-31T14:03:45.845Z,0.70
2017-12-31T14:06:14.089Z,3.07
2017-12-31T14:08:43.386Z,1.20
2017-12-31T14:11:10.573Z,2.07
2017-12-31T14:13:38.030Z,1.80
2017-12-31T14:16:05.652Z,0.70
2017-12-31T14:18:32.871Z,2.43
2017-12-31T14:21:00.069Z,1.87
2017-12-31T14:23:27.280Z,1.63
2017-12-31T14:25:54.490Z,1.80
2017-12-31T14:28:21.881Z,1.67
2017-12-31T14:30:49.070Z,0.97
2017-12-31T14:33:16.261Z,0.60
2017-12-31T14:35:43.453Z,1.67
2017-12-31T14:38:10.641Z,1.20
2017-12-31T14:40:39.136Z,1.75
2017-12-31T14:43:06.616Z,1.75
2017-12-31T14:45:33.913Z,3.33
2017-12-31T14:48:03.207Z,1.62
2017-12-31T14:50:30.813Z,1.92
2017-12-31T14:52:58.914Z,0.65
2017-12-31T14:55:26.385Z,0.60
2017-12-31T14:57:53.623Z,2.40
2017-12-31T15:00:20.814Z,2.03
2017-12-31T15:02:48.006Z,2.07
2017-12-31T15:05:15.219Z,1.80
2017-12-31T15:07:42.411Z,3.47
2017-12-31T15:10:09.726Z,3.97
2017-12-31T15:12:36.917Z,2.47
2017-12-31T15:15:04.110Z,0.97
2017-12-31T15:17:33.260Z,2.73
2017-12-31T15:20:00.481Z,1.70
2017-12-31T15:22:27.673Z,2.47
2017-12-31T15:24:55.591Z,0.90
2017-12-31T15:27:23.065Z,2.95
2017-12-31T15:29:50.598Z,1.92
2017-12-31T15:32:18.074Z,1.33
2017-12-31T15:34:45.577Z,3.78
2017-12-31T15:37:13.062Z,4.55
2017-12-31T15:39:40.543Z,2.78
2017-12-31T15:42:08.057Z,4.15
2017-12-31T15:44:36.258Z,4.47
2017-12-31T15:47:03.730Z,2.10
2017-12-31T15:49:31.283Z,4.72
2017-12-31T15:51:58.753Z,1.58
2017-12-31T15:54:26.253Z,0.90
2017-12-31T15:56:54.702Z,2.80
2017-12-31T15:59:22.179Z,3.08
2017-12-31T16:01:49.658Z,4.22
2017-12-31T16:04:17.138Z,3.65
2017-12-31T16:06:44.639Z,2.53
2017-12-31T16:09:12.109Z,2.40
2017-12-31T16:11:39.936Z,2.12
2017-12-31T16:14:07.425Z,1.58
2017-12-31T16:16:34.906Z,1.50
2017-12-31T16:19:02.509Z,3.55
2017-12-31T16:21:30.004Z,2.15
2017-12-31T16:23:57.523Z,1.17
2017-12-31T16:26:25.953Z,1.80
2017-12-31T16:28:53.429Z,1.62
2017-12-31T16:31:20.905Z,6.47
2017-12-31T16:33:48.377Z,1.45
2017-12-31T16:36:15.938Z,0.80
2017-12-31T16:38:43.417Z,0.70
2017-12-31T16:41:10.899Z,0.82
2017-12-31T16:43:38.374Z,1.00
2017-12-31T16:46:05.845Z,1.27
2017-12-31T16:48:33.316Z,1.50
2017-12-31T16:51:00.926Z,2.90
2017-12-31T16:53:28.405Z,2.25
2017-12-31T16:55:55.896Z,7.60
2017-12-31T16:58:23.395Z,5.25
2017-12-31T17:00:50.868Z,2.00
2017-12-31T17:03:18.341Z,2.90
2017-12-31T17:05:45.813Z,4.07
2017-12-31T17:08:13.290Z,4.43
2017-12-31T17:10:40.861Z,6.10
2017-12-31T17:13:08.347Z,15.63
2017-12-31T17:15:35.842Z,24.58
2017-12-31T17:18:03.348Z,19.80
2017-12-31T17:20:30.837Z,11.82
2017-12-31T17:22:59.272Z,15.68
2017-12-31T17:25:26.797Z,17.23
2017-12-31T17:27:54.385Z,31.30
2017-12-31T17:30:21.901Z,18.12
2017-12-31T17:32:49.413Z,11.85
2017-12-31T17:35:16.901Z,8.80
2017-12-31T17:37:44.398Z,5.15
2017-12-31T17:40:11.881Z,3.65
2017-12-31T17:42:39.394Z,5.60
2017-12-31T17:45:06.874Z,7.62
2017-12-31T17:47:34.402Z,20.95
2017-12-31T17:50:02.297Z,56.60
2017-12-31T17:52:29.793Z,38.63
2017-12-31T17:54:57.281Z,14.68
2017-12-31T17:57:24.777Z,8.88
2017-12-31T17:59:52.254Z,6.03
2017-12-31T18:02:19.729Z,3.90
2017-12-31T18:04:47.029Z,3.80
2017-12-31T18:07:14.626Z,7.53
2017-12-31T18:09:42.156Z,25.65
2017-12-31T18:12:09.801Z,30.02
2017-12-31T18:14:37.305Z,206.70
2017-12-31T18:17:04.802Z,161.90
2017-12-31T18:19:32.293Z,132.90
2017-12-31T18:21:59.797Z,404.45
2017-12-31T18:24:27.314Z,288.30
2017-12-31T18:26:54.839Z,169.60
2017-12-31T18:29:22.334Z,125.87
2017-12-31T18:31:49.655Z,205.32
2017-12-31T18:34:17.154Z,43.28
2017-12-31T18:36:44.657Z,35.67
2017-12-31T18:39:12.163Z,47.13
2017-12-31T18:41:39.745Z,29.87
2017-12-31T18:44:07.225Z,7.68
2017-12-31T18:46:34.701Z,7.65
2017-12-31T18:49:02.219Z,4.05
2017-12-31T18:51:29.706Z,5.03
2017-12-31T18:53:57.185Z,4.40
2017-12-31T18:56:24.661Z,8.15
2017-12-31T18:58:52.141Z,6.90
2017-12-31T19:01:19.618Z,8.90
2017-12-31T19:03:47.102Z,51.85
2017-12-31T19:06:14.586Z,12.18
2017-12-31T19:08:42.078Z,10.07
2017-12-31T19:11:09.567Z,8.50
2017-12-31T19:13:37.049Z,7.57
2017-12-31T19:16:04.529Z,4.80
2017-12-31T19:18:32.025Z,8.40
2017-12-31T19:20:59.530Z,10.50
2017-12-31T19:23:27.129Z,13.52
2017-12-31T19:25:56.194Z,7.72
2017-12-31T19:28:23.708Z,19.85
2017-12-31T19:30:51.192Z,12.32
2017-12-31T19:33:18.678Z,7.65
2017-12-31T19:35:46.614Z,9.98
2017-12-31T19:38:14.124Z,10.93
2017-12-31T19:40:42.426Z,10.20
2017-12-31T19:43:09.929Z,8.45
2017-12-31T19:45:37.415Z,9.55
2017-12-31T19:48:04.898Z,13.98
2017-12-31T19:50:32.380Z,7.28
2017-12-31T19:52:59.857Z,5.62
2017-12-31T19:55:27.449Z,7.22
2017-12-31T19:57:54.939Z,6.20
2017-12-31T20:00:22.432Z,6.15
2017-12-31T20:02:49.821Z,3.75
2017-12-31T20:05:17.311Z,7.40
2017-12-31T20:07:44.837Z,7.50
2017-12-31T20:10:12.328Z,23.60
2017-12-31T20:12:40.821Z,20.48
2017-12-31T20:15:08.314Z,11.55
2017-12-31T20:17:35.825Z,9.73
2017-12-31T20:20:03.309Z,7.70
2017-12-31T20:22:30.906Z,8.60
2017-12-31T20:24:58.389Z,5.57
2017-12-31T20:27:25.864Z,10.23
2017-12-31T20:29:53.426Z,19.27
2017-12-31T20:32:21.125Z,13.05
2017-12-31T20:34:48.630Z,11.48
2017-12-31T20:37:16.109Z,6.43
2017-12-31T20:39:43.727Z,9.30
2017-12-31T20:42:11.218Z,22.00
2017-12-31T20:44:38.721Z,10.10
2017-12-31T20:47:06.302Z,6.45
2017-12-31T20:49:33.814Z,20.00
2017-12-31T20:52:01.307Z,10.18
2017-12-31T20:54:28.792Z,11.40
2017-12-31T20:56:56.265Z,9.88
2017-12-31T20:59:23.746Z,8.02
2017-12-31T21:01:51.259Z,15.70
2017-12-31T21:04:18.738Z,6.70
2017-12-31T21:06:46.251Z,9.88
2017-12-31T21:09:13.831Z,6.18
2017-12-31T21:11:41.310Z,5.85
2017-12-31T21:14:08.797Z,7.60
2017-12-31T21:16:36.273Z,13.50
2017-12-31T21:19:03.762Z,15.95
2017-12-31T21:21:31.245Z,17.52
2017-12-31T21:23:58.721Z,9.75
2017-12-31T21:26:26.243Z,12.65
2017-12-31T21:28:53.722Z,9.73
2017-12-31T21:31:21.222Z,6.85
2017-12-31T21:33:48.812Z,9.05
2017-12-31T21:36:17.458Z,5.25
2017-12-31T21:38:44.937Z,5.72
2017-12-31T21:41:12.434Z,7.68
2017-12-31T21:43:40.177Z,3.78
2017-12-31T21:46:07.742Z,7.45
2017-12-31T21:48:35.225Z,3.17
2017-12-31T21:51:02.838Z,8.38
2017-12-31T21:53:30.420Z,3.83
2017-12-31T21:55:57.894Z,15.60
2017-12-31T21:58:25.394Z,6.62
2017-12-31T22:00:52.873Z,4.87
2017-12-31T22:03:20.352Z,6.12
2017-12-31T22:05:47.829Z,6.40
2017-12-31T22:08:15.321Z,3.53
2017-12-31T22:10:42.819Z,6.22
2017-12-31T22:13:10.300Z,4.53
2017-12-31T22:15:38.829Z,6.78
2017-12-31T22:18:06.307Z,3.72
2017-12-31T22:20:33.883Z,5.18
2017-12-31T22:23:01.363Z,5.18
2017-12-31T22:25:28.854Z,3.78
2017-12-31T22:27:56.362Z,10.75
2017-12-31T22:30:23.839Z,4.45
2017-12-31T22:32:51.403Z,6.20
2017-12-31T22:35:18.881Z,4.05
2017-12-31T22:37:46.349Z,7.10
2017-12-31T22:40:13.824Z,5.87
2017-12-31T22:42:41.293Z,4.43
2017-12-31T22:45:08.862Z,4.80
2017-12-31T22:47:36.345Z,5.95
2017-12-31T22:50:03.583Z,6.03
2017-12-31T22:52:31.926Z,7.75
2017-12-31T22:54:59.541Z,9.35
2017-12-31T22:57:27.018Z,8.20
2017-12-31T22:59:54.670Z,8.40
2017-12-31T23:02:22.181Z,23.52
2017-12-31T23:04:49.761Z,177.70
2017-12-31T23:07:17.109Z,233.23
2017-12-31T23:09:44.604Z,190.73
2017-12-31T23:12:12.102Z,185.88
2017-12-31T23:14:39.686Z,409.08
2017-12-31T23:17:07.275Z,434.08
2017-12-31T23:19:34.908Z,150.00
2017-12-31T23:22:02.445Z,132.55
2017-12-31T23:24:29.947Z,128.02
2017-12-31T23:26:57.478Z,77.18
2017-12-31T23:29:24.946Z,61.63
2017-12-31T23:31:52.438Z,117.95
2017-12-31T23:34:19.921Z,96.12
2017-12-31T23:36:47.414Z,84.05
2017-12-31T23:39:14.961Z,64.72
2017-12-31T23:41:42.450Z,47.13
2017-12-31T23:44:09.929Z,30.42
2017-12-31T23:46:37.421Z,29.60
2017-12-31T23:49:05.014Z,21.00
2017-12-31T23:51:32.594Z,19.62
2017-12-31T23:54:00.090Z,18.83
2017-12-31T23:56:27.589Z,20.73
2017-12-31T23:58:55.072Z,17.62
